Latest Weather Observations for Parndana

IDS60801

Issued at 10:51 pm CDT Friday 23 October 2020 (issued every 10 minutes, with the page automatically refreshed every 10 minutes)

About weather observations | Map of weather stations | Latest weather observations for SA | Other Formats
Station Details ID: 022843 Name: PARNDANA CFS AWS Lat: -35.79 Lon: 137.25 Height: 165.0 m
Data from the previous 72 hours. | See also: Recent months at Parndana
Date/Time
CDT
Temp
°C
App
Temp
°C
Dew
Point
°C
Rel
Hum
%
Delta-T
°C
Wind Press
QNH
hPa
Press
MSL
hPa
Rain since
9am
mm
Dir  Spd
km/h
Gust
km/h
Spd
kts
Gust
kts
23/10:30pm 10.6 4.1 6.4 75 2.0 S 30 41 16 22 - - 0.0
23/10:00pm 10.8 3.9 7.3 79 1.7 S 33 46 18 25 - - 0.0
23/09:30pm 11.1 4.8 7.6 79 1.7 S 30 41 16 22 - - 0.0
23/09:00pm 11.1 4.3 7.8 80 1.6 S 33 48 18 26 - - 0.0
23/08:30pm 11.1 4.5 8.5 84 1.3 S 33 46 18 25 - - 0.0
23/08:00pm 11.6 5.8 9.5 87 1.1 S 30 46 16 25 - - 0.0
23/07:30pm 11.9 6.1 9.6 86 1.2 S 30 41 16 22 - - 0.0
23/07:00pm 11.9 6.5 9.6 86 1.2 S 28 39 15 21 - - 0.0
23/06:30pm 11.9 7.2 10.5 91 0.7 S 26 43 14 23 - - 0.0
23/06:00pm 12.0 5.5 10.2 89 0.9 S 35 48 19 26 - - 0.0
23/05:30pm 12.6 7.0 10.1 85 1.3 S 30 39 16 21 - - 0.0
23/05:00pm 12.8 6.7 10.5 86 1.2 S 33 43 18 23 - - 0.0
23/04:30pm 12.9 7.2 11.0 88 1.0 S 32 43 17 23 - - 0.0
23/04:00pm 12.9 8.0 11.3 90 0.9 S 28 39 15 21 - - 0.0
23/03:30pm 12.8 7.5 11.2 90 0.8 S 30 39 16 21 - - 0.0
23/03:00pm 13.6 8.5 11.8 89 1.0 S 30 39 16 21 - - 0.0
23/02:30pm 12.9 7.6 11.3 90 0.9 S 30 41 16 22 - - 0.0
23/02:00pm 13.2 9.4 12.4 95 0.4 S 24 35 13 19 - - 0.0
23/01:30pm 13.5 9.4 12.6 94 0.5 SSE 26 37 14 20 - - 0.0
23/01:00pm 13.2 8.7 12.6 96 0.3 SSE 28 37 15 20 - - 0.0
23/12:30pm 13.8 10.3 13.3 97 0.3 SSE 24 32 13 17 - - 0.0
23/12:00pm 13.6 10.1 13.3 98 0.2 SSE 24 33 13 18 - - 0.0
23/11:30am 13.6 9.3 13.3 98 0.2 SSE 28 39 15 21 - - 0.0
23/11:00am 13.7 9.4 13.2 97 0.3 SSE 28 37 15 20 - - 0.0
23/10:30am 14.0 10.2 13.5 97 0.3 SSE 26 32 14 17 - - 0.0
23/10:00am 14.2 10.8 13.6 96 0.3 SSE 24 37 13 20 - - 0.0
23/09:30am 14.5 11.2 14.0 97 0.3 SSE 24 32 13 17 - - 0.0
23/09:00am 14.2 10.9 13.9 98 0.2 SSE 24 32 13 17 - - 3.8
23/08:30am 13.8 10.7 13.5 98 0.2 SSE 22 32 12 17 - - 3.8
23/08:00am 13.4 10.8 13.1 98 0.2 SSE 19 24 10 13 - - 3.8
23/07:30am 13.2 10.5 12.9 98 0.2 SSE 19 22 10 12 - - 3.8
23/07:00am 13.2 10.9 12.9 98 0.2 S 17 20 9 11 - - 3.8
23/06:30am 13.1 11.1 12.8 98 0.2 SSE 15 20 8 11 - - 3.8
23/06:00am 13.0 9.7 12.7 98 0.2 SSE 22 30 12 16 - - 3.8
23/05:30am 13.1 10.7 12.8 98 0.2 SSE 17 24 9 13 - - 3.8
23/05:00am 13.0 10.6 12.7 98 0.2 S 17 24 9 13 - - 3.8
23/04:30am 12.9 10.5 12.6 98 0.2 SSE 17 20 9 11 - - 3.8
23/04:00am 13.0 11.0 12.7 98 0.2 SSE 15 22 8 12 - - 3.8
23/03:30am 13.0 11.0 12.7 98 0.2 SSE 15 20 8 11 - - 3.8
23/03:00am 13.0 10.6 12.7 98 0.2 S 17 22 9 12 - - 3.8
23/02:30am 13.1 11.1 12.6 97 0.3 SSE 15 20 8 11 - - 3.6
23/02:00am 13.1 10.3 12.6 97 0.3 SE 19 24 10 13 - - 3.6
23/01:30am 13.2 10.8 12.7 97 0.3 S 17 26 9 14 - - 3.4
23/01:00am 13.2 10.8 12.7 97 0.3 SE 17 22 9 12 - - 3.4
23/12:30am 13.1 11.1 12.6 97 0.3 SE 15 20 8 11 - - 3.2
23/12:00am 13.0 11.7 12.4 96 0.3 SSE 11 13 6 7 - - 2.4
 
Date/Time
CDT
Temp
°C
App
Temp
°C
Dew
Point
°C
Rel
Hum
%
Delta-T
°C
Wind Press
QNH
hPa
Press
MSL
hPa
Rain since
9am
mm
Dir  Spd
km/h
Gust
km/h
Spd
kts
Gust
kts
22/11:30pm 12.9 11.5 12.3 96 0.3 SSE 11 19 6 10 - - 2.4
22/11:00pm 12.9 10.8 12.3 96 0.3 SSE 15 19 8 10 - - 2.4
22/10:30pm 12.8 11.3 12.0 95 0.4 SE 11 15 6 8 - - 2.4
22/10:00pm 12.8 12.1 12.0 95 0.4 SSE 7 9 4 5 - - 2.2
22/09:30pm 12.8 12.7 12.0 95 0.4 ENE 4 9 2 5 - - 2.2
22/09:00pm 12.8 8.9 12.0 95 0.4 ENE 24 33 13 18 - - 2.2
22/08:30pm 12.8 10.6 12.2 96 0.3 ESE 15 22 8 12 - - 1.8
22/08:00pm 12.9 12.3 12.3 96 0.3 ENE 7 9 4 5 - - 1.4
22/07:30pm 13.1 12.2 12.5 96 0.3 E 9 13 5 7 - - 1.0
22/07:00pm 13.3 11.2 12.5 95 0.4 ESE 15 19 8 10 - - 1.0
22/06:30pm 13.5 12.6 12.7 95 0.4 ESE 9 17 5 9 - - 1.0
22/06:00pm 14.0 13.3 13.2 95 0.4 ESE 9 11 5 6 - - 1.0
22/05:30pm 13.9 12.4 13.1 95 0.4 E 13 15 7 8 - - 1.0
22/05:00pm 14.1 13.1 13.3 95 0.4 E 11 15 6 8 - - 0.8
22/04:30pm 14.0 12.5 13.1 94 0.5 SE 13 17 7 9 - - 0.8
22/04:00pm 14.2 13.1 13.1 93 0.6 E 11 15 6 8 - - 0.8
22/03:30pm 14.2 13.0 12.8 91 0.8 ESE 11 13 6 7 - - 0.4
22/03:00pm 14.3 13.1 12.9 91 0.8 SE 11 15 6 8 - - 0.4
22/02:30pm 14.7 13.8 12.6 87 1.2 ESE 9 13 5 7 - - 0.0
22/02:00pm 14.6 13.5 12.1 85 1.4 ESE 9 15 5 8 - - 0.0
22/01:30pm 14.4 11.8 12.1 86 1.3 ESE 17 22 9 12 - - 0.0
22/01:00pm 14.2 12.0 12.1 87 1.1 ESE 15 19 8 10 - - 0.0
22/12:30pm 14.1 11.5 12.1 88 1.1 ESE 17 20 9 11 - - 0.0
22/12:00pm 14.2 11.3 12.2 88 1.1 ESE 19 24 10 13 - - 0.0
22/11:30am 13.5 9.9 11.9 90 0.9 ESE 22 28 12 15 - - 0.0
22/11:00am 13.1 9.5 11.7 91 0.8 ESE 22 30 12 16 - - 0.0
22/10:30am 12.9 9.6 11.6 92 0.7 SE 20 26 11 14 - - 0.0
22/10:00am 12.7 9.9 11.4 92 0.7 ESE 17 24 9 13 - - 0.0
22/09:30am 12.5 9.3 11.2 92 0.7 ESE 19 28 10 15 - - 0.0
22/09:00am 12.3 8.9 11.2 93 0.6 ESE 20 30 11 16 - - 0.0
22/08:30am 12.1 8.3 11.0 93 0.6 ESE 22 32 12 17 - - 0.0
22/08:00am 12.0 8.6 11.1 94 0.5 ESE 20 26 11 14 - - 0.0
22/07:30am 11.6 9.5 11.0 96 0.3 ESE 13 19 7 10 - - 0.0
22/07:00am 10.9 8.9 10.3 96 0.3 SE 11 15 6 8 - - 0.0
22/06:30am 10.4 8.7 9.8 96 0.3 SE 9 15 5 8 - - 0.0
22/06:00am 10.1 8.3 9.5 96 0.3 SSE 9 11 5 6 - - 0.0
22/05:30am 9.9 8.1 9.3 96 0.3 SSE 9 17 5 9 - - 0.0
22/05:00am 8.8 5.5 8.2 96 0.3 SSE 15 19 8 10 - - 0.0
22/04:30am 8.3 6.0 7.5 95 0.4 SSE 9 13 5 7 - - 0.0
22/04:00am 8.5 6.6 7.7 95 0.4 SE 7 9 4 5 - - 0.0
22/03:30am 8.3 5.6 7.2 93 0.5 ESE 11 13 6 7 - - 0.0
22/03:00am 9.4 7.0 8.5 94 0.4 SE 11 17 6 9 - - 0.0
22/02:30am 9.4 6.6 8.5 94 0.4 SE 13 19 7 10 - - 0.0
22/02:00am 9.4 6.5 8.2 92 0.6 SE 13 17 7 9 - - 0.0
22/01:30am 9.6 6.8 8.5 93 0.5 SE 13 17 7 9 - - 0.0
22/01:00am 9.1 6.5 7.9 92 0.6 SE 11 17 6 9 - - 0.0
22/12:30am 9.6 6.7 8.2 91 0.7 SE 13 17 7 9 - - 0.0
22/12:00am 10.1 7.3 8.5 90 0.8 SE 13 17 7 9 - - 0.0
 
Date/Time
CDT
Temp
°C
App
Temp
°C
Dew
Point
°C
Rel
Hum
%
Delta-T
°C
Wind Press
QNH
hPa
Press
MSL
hPa
Rain since
9am
mm
Dir  Spd
km/h
Gust
km/h
Spd
kts
Gust
kts
21/11:30pm 10.2 7.1 9.0 92 0.6 SE 15 20 8 11 - - 0.0
21/11:00pm 9.7 6.9 8.6 93 0.5 SSE 13 17 7 9 - - 0.0
21/10:30pm 9.6 6.4 8.5 93 0.5 SE 15 17 8 9 - - 0.0
21/10:00pm 9.6 6.8 8.4 92 0.6 SSE 13 17 7 9 - - 0.0
21/09:30pm 9.9 7.1 8.7 92 0.6 SSE 13 17 7 9 - - 0.0
21/09:00pm 10.3 7.5 8.6 89 0.8 SSE 13 17 7 9 - - 0.0
21/08:30pm 10.8 7.7 8.9 88 0.9 SE 15 19 8 10 - - 0.0
21/08:00pm 10.8 8.5 8.9 88 0.9 SE 11 17 6 9 - - 0.0
21/07:30pm 11.5 8.4 8.9 84 1.3 SE 15 22 8 12 - - 0.0
21/07:00pm 12.1 8.1 8.9 81 1.6 SE 20 26 11 14 - - 0.0
21/06:30pm 13.1 8.8 9.4 78 1.9 SE 22 28 12 15 - - 0.0
21/06:00pm 13.5 8.9 9.6 77 2.0 SE 24 32 13 17 - - 0.0
21/05:30pm 14.1 9.8 9.3 73 2.5 SE 22 30 12 16 - - 0.0
21/05:00pm 14.6 10.5 10.0 74 2.4 SE 22 32 12 17 - - 0.0
21/04:30pm 16.1 13.0 11.7 75 2.4 SE 19 24 10 13 - - 0.0
21/04:00pm 16.4 13.1 10.9 70 3.0 SE 19 28 10 15 - - 0.0
21/03:30pm 16.6 13.3 11.5 72 2.8 ESE 20 30 11 16 - - 0.0
21/03:00pm 16.9 13.9 11.8 72 2.8 ESE 19 26 10 14 - - 0.0
21/02:30pm 16.7 13.9 11.4 71 2.9 SE 17 24 9 13 - - 0.0
21/02:00pm 16.8 14.2 12.1 74 2.6 ESE 17 24 9 13 - - 0.0
21/01:30pm 16.7 14.0 11.8 73 2.7 ESE 17 26 9 14 - - 0.0
21/01:00pm 16.6 14.5 12.4 76 2.3 ESE 15 22 8 12 - - 0.0
21/12:30pm 15.7 12.5 11.1 74 2.5 ESE 19 24 10 13 - - 0.0
21/12:00pm 15.7 12.5 11.3 75 2.4 ESE 19 24 10 13 - - 0.0
21/11:30am 15.5 12.4 11.5 77 2.2 SE 19 24 10 13 - - 0.0
21/11:00am 14.2 10.6 10.0 76 2.2 ESE 19 24 10 13 - - 0.0
21/10:30am 14.3 11.0 10.9 80 1.8 SE 19 24 10 13 - - 0.0
21/10:00am 13.8 10.2 10.4 80 1.8 SE 20 26 11 14 - - 0.0
21/09:30am 13.6 10.1 10.2 80 1.8 ESE 19 24 10 13 - - 0.0
21/09:00am 12.9 9.3 9.9 82 1.6 ESE 19 26 10 14 - - 0.0
21/08:30am 12.9 9.3 9.9 82 1.6 ESE 19 22 10 12 - - 0.0
21/08:00am 11.4 8.9 9.7 89 0.9 SE 13 17 7 9 - - 0.0
21/07:30am 11.0 8.4 9.4 90 0.8 SSE 13 17 7 9 - - 0.0
21/07:00am 10.5 7.9 9.3 92 0.6 SSE 13 15 7 8 - - 0.0
21/06:30am 10.4 8.2 9.2 92 0.6 SSE 11 15 6 8 - - 0.0
21/06:00am 10.2 7.9 9.1 93 0.5 SSE 11 13 6 7 - - 0.0
21/05:30am 10.0 8.1 8.9 93 0.5 SSE 9 11 5 6 - - 0.0
21/05:00am 10.4 8.2 9.2 92 0.6 SE 11 15 6 8 - - 0.0
21/04:30am 10.1 7.8 9.0 93 0.5 SE 11 13 6 7 - - 0.0
21/04:00am 9.6 7.6 8.5 93 0.5 SSE 9 11 5 6 - - 0.0
21/03:30am 9.4 7.3 8.2 92 0.6 SSE 9 13 5 7 - - 0.0
21/03:00am 9.7 7.6 8.3 91 0.7 SSE 9 13 5 7 - - 0.0
21/02:30am 9.6 7.5 8.4 92 0.6 SSE 9 9 5 5 - - 0.0
21/02:00am 9.3 7.1 7.7 90 0.8 SSE 9 13 5 7 - - 0.0
21/01:30am 9.8 6.9 8.2 90 0.8 S 13 15 7 8 - - 0.0
21/01:00am 10.3 7.9 8.6 89 0.8 SE 11 15 6 8 - - 0.0
21/12:30am 10.1 7.3 8.5 90 0.8 SE 13 19 7 10 - - 0.0
21/12:00am 9.1 6.5 7.9 92 0.6 SSE 11 13 6 7 - - 0.0
 
Date/Time
CDT
Temp
°C
App
Temp
°C
Dew
Point
°C
Rel
Hum
%
Delta-T
°C
Wind Press
QNH
hPa
Press
MSL
hPa
Rain since
9am
mm
Dir  Spd
km/h
Gust
km/h
Spd
kts
Gust
kts
20/11:30pm 8.8 6.2 7.6 92 0.6 SSE 11 13 6 7 - - 0.0
20/11:00pm 8.9 6.7 7.7 92 0.6 SSE 9 13 5 7 - - 0.0

Other formats

Comma delimited format used in spreadsheet applications
http://www.bom.gov.au/fwo/IDS60801/IDS60801.94807.axf

JavaScript Object Notation format (JSON) in row-major order
http://www.bom.gov.au/fwo/IDS60801/IDS60801.94807.json

Data quality

Most of these data are generated automatically and are frequently updated. Quality checks on data are not normally performed. It is possible for incorrect values to appear. Refer to information at About Latest Weather Observations and please check the disclaimer before using these data.